createdAt,value
2022-12-09T00:03:34.034Z,98301.00
2022-12-09T00:06:23.989Z,98300.69
2022-12-09T00:09:15.840Z,98295.13
2022-12-09T00:12:03.159Z,98284.31
2022-12-09T00:14:50.361Z,98297.50
2022-12-09T00:17:37.458Z,98284.66
2022-12-09T00:20:24.595Z,98284.34
2022-12-09T00:23:12.179Z,98289.97
2022-12-09T00:25:59.492Z,98277.28
2022-12-09T00:28:47.091Z,98289.13
2022-12-09T00:31:36.002Z,98302.00
2022-12-09T00:34:23.113Z,98298.53
2022-12-09T00:37:10.209Z,98295.16
2022-12-09T00:39:57.225Z,98302.88
2022-12-09T00:42:44.373Z,98280.06
2022-12-09T00:45:31.637Z,98284.31
2022-12-09T00:48:18.665Z,98283.47
2022-12-09T00:51:11.232Z,98283.69
2022-12-09T00:53:58.366Z,98277.56
2022-12-09T00:56:45.489Z,98273.44
2022-12-09T00:59:32.740Z,98266.16
2022-12-09T01:02:19.898Z,98262.47
2022-12-09T01:05:07.225Z,98273.00
2022-12-09T01:07:54.253Z,98276.91
2022-12-09T01:10:43.795Z,98277.75
2022-12-09T01:13:31.144Z,98263.81
2022-12-09T01:16:24.894Z,98288.88
2022-12-09T01:19:14.698Z,98289.91
2022-12-09T01:22:02.012Z,98284.53
2022-12-09T01:24:49.191Z,98279.25
2022-12-09T01:27:36.212Z,98276.09
2022-12-09T01:30:23.307Z,98266.16
2022-12-09T01:33:10.616Z,98274.59
2022-12-09T01:35:57.960Z,98277.75
2022-12-09T01:38:46.616Z,98262.56
2022-12-09T01:41:34.464Z,98274.81
2022-12-09T01:44:24.400Z,98275.44
2022-12-09T01:47:22.385Z,98280.41
2022-12-09T01:50:10.600Z,98262.94
2022-12-09T01:52:58.577Z,98272.34
2022-12-09T01:55:46.405Z,98264.66
2022-12-09T01:58:33.885Z,98263.09
2022-12-09T02:01:21.746Z,98262.34
2022-12-09T02:04:09.119Z,98261.50
2022-12-09T02:07:00.166Z,98267.06
2022-12-09T02:09:47.868Z,98257.25
2022-12-09T02:12:46.856Z,98277.97
2022-12-09T02:15:41.848Z,98282.53
2022-12-09T02:18:39.758Z,98261.91
2022-12-09T02:21:31.262Z,98280.25
2022-12-09T02:24:35.446Z,98276.66
2022-12-09T02:27:43.330Z,98270.34
2022-12-09T02:30:38.208Z,98271.19
2022-12-09T02:33:42.042Z,98273.41
2022-12-09T02:36:35.119Z,98254.69
2022-12-09T02:39:29.960Z,98260.72
2022-12-09T02:42:19.290Z,98264.31
2022-12-09T02:45:09.035Z,98253.44
2022-12-09T02:48:01.344Z,98257.13
2022-12-09T02:50:51.345Z,98249.09
2022-12-09T02:53:40.237Z,98264.41
2022-12-09T02:56:28.175Z,98270.66
2022-12-09T02:59:15.334Z,98272.53
2022-12-09T03:02:12.536Z,98266.31
2022-12-09T03:05:03.041Z,98264.94
2022-12-09T03:07:56.047Z,98253.75
2022-12-09T03:11:06.879Z,98251.44
2022-12-09T03:14:09.906Z,98229.56
2022-12-09T03:17:05.392Z,98232.91
2022-12-09T03:19:58.916Z,98222.78
2022-12-09T03:22:48.262Z,98234.94
2022-12-09T03:25:40.855Z,98238.53
2022-12-09T03:28:35.051Z,98237.34
2022-12-09T03:31:25.097Z,98217.41
2022-12-09T03:34:16.433Z,98222.56
2022-12-09T03:37:05.568Z,98214.84
2022-12-09T03:39:54.953Z,98213.19
2022-12-09T03:43:00.856Z,98207.66
2022-12-09T03:45:48.821Z,98205.78
2022-12-09T03:48:36.395Z,98206.50
2022-12-09T03:51:30.812Z,98185.03
2022-12-09T03:54:30.962Z,98182.00
2022-12-09T03:57:20.007Z,98178.69
2022-12-09T04:00:08.367Z,98173.34
2022-12-09T04:02:55.717Z,98168.28
2022-12-09T04:05:43.373Z,98167.09
2022-12-09T04:08:30.982Z,98160.88
2022-12-09T04:11:18.423Z,98142.25
2022-12-09T04:14:09.145Z,98123.25
2022-12-09T04:16:59.489Z,98136.75
2022-12-09T04:19:46.689Z,98121.13
2022-12-09T04:22:33.805Z,98126.69
2022-12-09T04:25:21.227Z,98111.38
2022-12-09T04:28:08.901Z,98084.44
2022-12-09T04:30:56.062Z,98094.03
2022-12-09T04:33:44.198Z,98093.06
2022-12-09T04:36:31.857Z,98101.38
2022-12-09T04:39:19.746Z,98093.63
2022-12-09T04:42:07.086Z,98097.09
2022-12-09T04:44:54.406Z,98098.50
2022-12-09T04:47:41.572Z,98092.47
2022-12-09T04:50:29.086Z,98096.69
2022-12-09T04:53:16.297Z,98088.88
2022-12-09T04:56:06.243Z,98072.28
2022-12-09T04:58:53.663Z,98069.06
2022-12-09T05:01:40.733Z,98064.50
2022-12-09T05:04:28.037Z,98063.78
2022-12-09T05:07:15.494Z,98071.03
2022-12-09T05:10:03.093Z,98066.75
2022-12-09T05:12:50.345Z,98063.75
2022-12-09T05:15:38.955Z,98067.91
2022-12-09T05:18:26.580Z,98053.75
2022-12-09T05:21:17.938Z,98051.38
2022-12-09T05:24:05.634Z,98063.25
2022-12-09T05:26:53.072Z,98064.25
2022-12-09T05:29:40.646Z,98056.56
2022-12-09T05:32:30.793Z,98052.09
2022-12-09T05:35:18.146Z,98051.38
2022-12-09T05:38:05.671Z,98003.13
2022-12-09T05:40:53.687Z,97992.56
2022-12-09T05:43:41.095Z,98027.22
2022-12-09T05:46:28.948Z,98048.97
2022-12-09T05:49:16.206Z,98032.66
2022-12-09T05:52:03.892Z,98049.63
2022-12-09T05:54:51.263Z,98037.47
2022-12-09T05:57:38.643Z,98054.06
2022-12-09T06:00:25.931Z,98037.84
2022-12-09T06:03:13.680Z,98020.88
2022-12-09T06:06:15.324Z,98024.25
2022-12-09T06:09:03.184Z,98003.56
2022-12-09T06:11:50.846Z,97983.00
2022-12-09T06:14:38.675Z,97993.59
2022-12-09T06:17:26.236Z,98005.25
2022-12-09T06:20:14.447Z,98017.88
2022-12-09T06:23:01.931Z,97979.91
2022-12-09T06:25:49.158Z,98006.09
2022-12-09T06:28:36.601Z,98002.94
2022-12-09T06:31:24.250Z,98002.34
2022-12-09T06:34:12.448Z,97963.19
2022-12-09T06:37:00.238Z,97990.94
2022-12-09T06:39:47.928Z,97977.59
2022-12-09T06:42:35.547Z,97999.94
2022-12-09T06:45:23.530Z,97991.78
2022-12-09T06:48:10.923Z,97976.53
2022-12-09T06:50:58.660Z,97995.72
2022-12-09T06:53:46.778Z,97987.66
2022-12-09T06:56:34.112Z,97990.19
2022-12-09T06:59:21.690Z,97946.53
2022-12-09T07:02:10.811Z,97923.75
2022-12-09T07:04:58.291Z,97933.94
2022-12-09T07:07:51.349Z,97920.50
2022-12-09T07:10:40.769Z,97882.16
2022-12-09T07:13:28.844Z,97951.97
2022-12-09T07:16:16.412Z,97944.41
2022-12-09T07:19:05.109Z,97932.44
2022-12-09T07:21:52.703Z,97923.69
2022-12-09T07:24:40.774Z,97934.63
2022-12-09T07:27:28.167Z,97953.03
2022-12-09T07:30:15.640Z,97968.09
2022-12-09T07:33:03.204Z,97934.47
2022-12-09T07:35:50.837Z,97943.75
2022-12-09T07:38:38.168Z,97951.06
2022-12-09T07:41:25.933Z,97938.56
2022-12-09T07:44:13.582Z,97942.78
2022-12-09T07:47:01.250Z,97920.16
2022-12-09T07:49:48.658Z,97907.06
2022-12-09T07:52:36.384Z,97928.97
2022-12-09T07:55:24.053Z,97926.06
2022-12-09T07:58:11.286Z,97900.84
2022-12-09T08:01:04.401Z,97943.44
2022-12-09T08:03:52.371Z,97920.56
2022-12-09T08:06:40.139Z,97958.38
2022-12-09T08:09:27.703Z,97933.22
2022-12-09T08:12:15.424Z,97925.09
2022-12-09T08:15:03.031Z,97902.78
2022-12-09T08:17:50.248Z,97943.59
2022-12-09T08:20:37.885Z,97901.41
2022-12-09T08:23:25.593Z,97934.78
2022-12-09T08:26:14.697Z,97900.78
2022-12-09T08:29:02.073Z,97909.44
2022-12-09T08:31:49.783Z,97906.00
2022-12-09T08:34:37.326Z,97909.25
2022-12-09T08:37:24.763Z,97901.66
2022-12-09T08:40:13.862Z,97905.91
2022-12-09T08:43:05.029Z,97890.34
2022-12-09T08:45:52.501Z,97920.03
2022-12-09T08:48:41.833Z,97860.56
2022-12-09T08:51:30.443Z,97925.47
2022-12-09T08:54:18.141Z,97895.53
2022-12-09T08:57:05.799Z,97887.78
2022-12-09T08:59:53.183Z,97893.47
2022-12-09T09:02:40.555Z,97881.63
2022-12-09T09:05:28.396Z,97853.84
2022-12-09T09:08:19.096Z,97883.94
2022-12-09T09:11:12.379Z,97877.91
2022-12-09T09:14:00.400Z,97833.63
2022-12-09T09:16:48.252Z,97857.53
2022-12-09T09:19:35.947Z,97829.44
2022-12-09T09:22:23.556Z,97852.09
2022-12-09T09:25:11.015Z,97853.06
2022-12-09T09:27:58.451Z,97823.06
2022-12-09T09:30:50.555Z,97820.09
2022-12-09T09:33:38.233Z,97856.44
2022-12-09T09:36:25.773Z,97831.69
2022-12-09T09:39:13.808Z,97837.13
2022-12-09T09:42:08.243Z,97837.97
2022-12-09T09:44:56.314Z,97811.59
2022-12-09T09:47:59.496Z,97836.91
2022-12-09T09:50:58.420Z,97827.44
2022-12-09T09:53:50.456Z,97842.47
2022-12-09T09:56:55.271Z,97832.13
2022-12-09T09:59:42.724Z,97832.41
2022-12-09T10:02:38.615Z,97809.72
2022-12-09T10:05:29.225Z,97833.22
2022-12-09T10:08:35.836Z,97817.19
2022-12-09T10:11:33.114Z,97821.13
2022-12-09T10:14:46.663Z,97808.66
2022-12-09T10:17:43.250Z,97815.22
2022-12-09T10:20:32.436Z,97800.41
2022-12-09T10:23:21.641Z,97802.13
2022-12-09T10:26:16.932Z,97778.09
2022-12-09T10:29:14.217Z,97801.75
2022-12-09T10:32:01.782Z,97764.28
2022-12-09T10:34:49.546Z,97797.97
2022-12-09T10:37:36.867Z,97777.84
2022-12-09T10:40:36.196Z,97787.63
2022-12-09T10:43:40.190Z,97773.22
2022-12-09T10:46:27.630Z,97756.50
2022-12-09T10:49:22.715Z,97758.72
2022-12-09T10:52:10.141Z,97725.34
2022-12-09T10:54:58.244Z,97732.63
2022-12-09T10:57:45.349Z,97748.41
2022-12-09T11:00:34.991Z,97749.38
2022-12-09T11:03:32.872Z,97747.00
2022-12-09T11:06:27.835Z,97721.13
2022-12-09T11:09:27.855Z,97732.88
2022-12-09T11:12:28.572Z,97734.28
2022-12-09T11:15:26.378Z,97732.88
2022-12-09T11:18:22.077Z,97749.22
2022-12-09T11:21:29.876Z,97738.63
2022-12-09T11:24:23.267Z,97721.41
2022-12-09T11:27:34.720Z,97702.72
2022-12-09T11:30:29.265Z,97760.94
2022-12-09T11:33:38.514Z,97724.63
2022-12-09T11:36:35.413Z,97724.63
2022-12-09T11:39:32.983Z,97720.88
2022-12-09T11:42:23.283Z,97725.03
2022-12-09T11:45:22.897Z,97703.22
2022-12-09T11:48:36.247Z,97717.91
2022-12-09T11:51:44.520Z,97741.53
2022-12-09T11:55:05.149Z,97735.81
2022-12-09T11:57:57.216Z,97733.03
2022-12-09T12:00:52.925Z,97731.78
2022-12-09T12:03:48.071Z,97721.16
2022-12-09T12:06:47.121Z,97702.88
2022-12-09T12:10:02.704Z,97715.59
2022-12-09T12:13:08.147Z,97705.97
2022-12-09T12:16:17.895Z,97706.38
2022-12-09T12:19:29.993Z,97696.59
2022-12-09T12:22:52.955Z,97694.34
2022-12-09T12:25:50.563Z,97689.19
2022-12-09T12:29:00.117Z,97677.59
2022-12-09T12:32:10.325Z,97663.94
2022-12-09T12:35:13.127Z,97662.38
2022-12-09T12:38:22.151Z,97677.59
2022-12-09T12:41:17.167Z,97672.69
2022-12-09T12:44:51.634Z,97668.25
2022-12-09T12:47:48.093Z,97657.06
2022-12-09T12:50:49.739Z,97653.72
2022-12-09T12:53:59.000Z,97660.00
2022-12-09T12:56:51.612Z,97642.00
2022-12-09T12:59:47.913Z,97632.78
2022-12-09T13:03:09.578Z,97643.78
2022-12-09T13:05:58.624Z,97620.91
2022-12-09T13:09:03.246Z,97605.31
2022-12-09T13:14:32.191Z,97613.53
2022-12-09T13:17:23.443Z,97603.09
2022-12-09T13:20:19.164Z,97599.03
2022-12-09T13:23:27.661Z,97590.53
2022-12-09T13:26:26.817Z,97581.19
2022-12-09T13:29:31.958Z,97581.31
2022-12-09T13:32:37.819Z,97580.63
2022-12-09T13:35:33.772Z,97563.34
2022-12-09T13:38:40.790Z,97571.84
2022-12-09T13:41:27.893Z,97566.81
2022-12-09T13:44:19.048Z,97565.41
2022-12-09T13:47:16.423Z,97564.44
2022-12-09T13:50:21.644Z,97561.66
2022-12-09T13:53:20.723Z,97573.53
2022-12-09T13:56:42.039Z,97548.69
2022-12-09T13:59:39.992Z,97557.47
2022-12-09T14:02:29.973Z,97549.53
2022-12-09T14:05:26.275Z,97541.03
2022-12-09T14:08:24.710Z,97540.03
2022-12-09T14:11:47.981Z,97538.38
2022-12-09T14:14:34.933Z,97536.16
2022-12-09T14:17:28.946Z,97537.28
2022-12-09T14:20:25.282Z,97503.50
2022-12-09T14:23:15.716Z,97518.44
2022-12-09T14:26:05.273Z,97518.84
2022-12-09T14:28:54.241Z,97518.00
2022-12-09T14:31:49.984Z,97502.81
2022-12-09T14:34:40.768Z,97515.09
2022-12-09T14:37:35.595Z,97510.78
2022-12-09T14:40:31.843Z,97505.75
2022-12-09T14:43:37.218Z,97495.28
2022-12-09T14:46:36.516Z,97507.56
2022-12-09T14:49:27.758Z,97505.16
2022-12-09T14:52:24.245Z,97509.91
2022-12-09T14:55:16.174Z,97497.06
2022-12-09T14:58:03.799Z,97502.03
2022-12-09T15:01:05.267Z,97494.13
2022-12-09T15:04:01.250Z,97499.16
2022-12-09T15:06:48.737Z,97498.03
2022-12-09T15:09:36.169Z,97495.41
2022-12-09T15:12:32.614Z,97494.97
2022-12-09T15:15:19.700Z,97494.78
2022-12-09T15:18:17.396Z,97491.75
2022-12-09T15:21:08.142Z,97487.81
2022-12-09T15:23:56.404Z,97502.22
2022-12-09T15:26:55.497Z,97494.16
2022-12-09T15:29:42.776Z,97445.22
2022-12-09T15:32:31.356Z,97493.16
2022-12-09T15:35:22.445Z,97491.63
2022-12-09T15:38:11.201Z,97490.38
2022-12-09T15:41:19.878Z,97476.00
2022-12-09T15:44:12.989Z,97480.19
2022-12-09T15:47:06.874Z,97465.81
2022-12-09T15:50:04.825Z,97478.81
2022-12-09T15:53:01.153Z,97473.09
2022-12-09T15:55:55.080Z,97488.41
2022-12-09T15:58:48.523Z,97487.13
2022-12-09T16:01:37.556Z,97483.41
2022-12-09T16:04:32.544Z,97477.69
2022-12-09T16:07:21.981Z,97467.09
2022-12-09T16:10:17.105Z,97488.28
2022-12-09T16:13:06.750Z,97485.22
2022-12-09T16:16:03.029Z,97480.63
2022-12-09T16:18:51.147Z,97466.00
2022-12-09T16:21:38.731Z,97469.50
2022-12-09T16:24:44.081Z,97464.97
2022-12-09T16:27:40.596Z,97445.59
2022-12-09T16:30:32.919Z,97465.06
2022-12-09T16:33:24.517Z,97466.75
2022-12-09T16:36:26.568Z,97472.50
2022-12-09T16:39:26.556Z,97482.13
2022-12-09T16:42:23.508Z,97459.13
2022-12-09T16:45:32.376Z,97465.00
2022-12-09T16:48:21.605Z,97472.38
2022-12-09T16:51:13.365Z,97475.59
2022-12-09T16:54:02.304Z,97486.53
2022-12-09T16:56:54.174Z,97478.88
2022-12-09T16:59:44.199Z,97478.50
2022-12-09T17:02:37.714Z,97495.25
2022-12-09T17:05:25.549Z,97499.44
2022-12-09T17:08:13.634Z,97506.78
2022-12-09T17:11:01.692Z,97510.00
2022-12-09T17:13:50.931Z,97516.13
2022-12-09T17:16:39.011Z,97513.34
2022-12-09T17:19:27.186Z,97489.78
2022-12-09T17:22:15.379Z,97497.88
2022-12-09T17:25:04.962Z,97504.00
2022-12-09T17:27:53.490Z,97494.56
2022-12-09T17:30:41.515Z,97515.06
2022-12-09T17:33:30.738Z,97507.81
2022-12-09T17:36:20.236Z,97516.59
2022-12-09T17:39:10.624Z,97532.38
2022-12-09T17:41:58.749Z,97528.31
2022-12-09T17:44:47.425Z,97525.66
2022-12-09T17:47:35.390Z,97533.03
2022-12-09T17:50:26.075Z,97529.00
2022-12-09T17:53:13.522Z,97539.31
2022-12-09T17:56:07.862Z,97539.16
2022-12-09T17:58:57.953Z,97559.97
2022-12-09T18:01:47.626Z,97561.22
2022-12-09T18:04:35.360Z,97552.69
2022-12-09T18:07:22.804Z,97552.56
2022-12-09T18:10:11.556Z,97559.25
2022-12-09T18:13:00.179Z,97543.06
2022-12-09T18:15:54.076Z,97558.69
2022-12-09T18:18:43.161Z,97558.41
2022-12-09T18:21:30.759Z,97552.41
2022-12-09T18:24:18.814Z,97552.41
2022-12-09T18:27:06.291Z,97542.22
2022-12-09T18:29:54.991Z,97567.63
2022-12-09T18:32:42.604Z,97568.88
2022-12-09T18:35:30.312Z,97557.72
2022-12-09T18:38:19.568Z,97570.84
2022-12-09T18:41:15.022Z,97578.41
2022-12-09T18:44:05.335Z,97559.44
2022-12-09T18:46:52.827Z,97579.38
2022-12-09T18:49:40.245Z,97581.47
2022-12-09T18:52:27.464Z,97587.88
2022-12-09T18:55:14.878Z,97594.44
2022-12-09T18:58:02.697Z,97614.09
2022-12-09T19:00:51.286Z,97623.88
2022-12-09T19:03:40.465Z,97617.88
2022-12-09T19:06:34.923Z,97620.94
2022-12-09T19:09:25.380Z,97627.50
2022-12-09T19:12:45.278Z,97630.72
2022-12-09T19:15:20.478Z,97636.59
2022-12-09T19:18:08.487Z,97634.63
2022-12-09T19:20:56.451Z,97643.97
2022-12-09T19:23:46.134Z,97645.06
2022-12-09T19:26:39.214Z,97635.72
2022-12-09T19:29:28.550Z,97644.81
2022-12-09T19:32:50.954Z,97637.81
2022-12-09T19:35:24.605Z,97644.22
2022-12-09T19:38:14.129Z,97636.56
2022-12-09T19:41:02.853Z,97650.66
2022-12-09T19:43:58.537Z,97641.31
2022-12-09T19:46:47.134Z,97659.59
2022-12-09T19:49:34.954Z,97652.44
2022-12-09T19:52:24.419Z,97659.56
2022-12-09T19:55:15.003Z,97656.75
2022-12-09T19:58:03.938Z,97664.53
2022-12-09T20:00:51.746Z,97659.63
2022-12-09T20:03:41.350Z,97653.47
2022-12-09T20:06:29.405Z,97676.03
2022-12-09T20:09:27.603Z,97686.66
2022-12-09T20:12:15.768Z,97696.81
2022-12-09T20:15:07.670Z,97688.75
2022-12-09T20:17:55.570Z,97704.44
2022-12-09T20:20:48.701Z,97701.94
2022-12-09T20:23:41.694Z,97710.13
2022-12-09T20:26:32.927Z,97723.16
2022-12-09T20:29:20.790Z,97722.44
2022-12-09T20:32:09.759Z,97719.81
2022-12-09T20:34:58.140Z,97718.38
2022-12-09T20:37:47.374Z,97730.91
2022-12-09T20:40:40.359Z,97742.03
2022-12-09T20:43:31.235Z,97739.03
2022-12-09T20:46:22.335Z,97748.66
2022-12-09T20:49:10.706Z,97738.72
2022-12-09T20:51:58.473Z,97754.84
2022-12-09T20:54:46.506Z,97745.69
2022-12-09T20:57:34.546Z,97753.03
2022-12-09T21:00:24.252Z,97751.78
2022-12-09T21:03:11.900Z,97765.25
2022-12-09T21:05:59.776Z,97765.13
2022-12-09T21:08:47.998Z,97764.53
2022-12-09T21:11:36.724Z,97757.19
2022-12-09T21:14:32.799Z,97762.00
2022-12-09T21:17:20.798Z,97765.63
2022-12-09T21:20:11.960Z,97765.28
2022-12-09T21:23:32.409Z,97759.75
2022-12-09T21:26:10.099Z,97767.44
2022-12-09T21:29:00.349Z,97778.72
2022-12-09T21:31:55.044Z,97757.69
2022-12-09T21:34:42.965Z,97772.59
2022-12-09T21:37:31.976Z,97778.16
2022-12-09T21:40:19.536Z,97775.69
2022-12-09T21:43:07.686Z,97773.56
2022-12-09T21:45:55.800Z,97783.56
2022-12-09T21:48:44.530Z,97792.34
2022-12-09T21:51:34.704Z,97786.88
2022-12-09T21:54:21.877Z,97801.91
2022-12-09T21:57:09.454Z,97797.16
2022-12-09T21:59:56.735Z,97805.81
2022-12-09T22:02:44.822Z,97804.72
2022-12-09T22:05:35.058Z,97794.94
2022-12-09T22:08:23.039Z,97824.94
2022-12-09T22:11:16.125Z,97811.00
2022-12-09T22:14:03.724Z,97805.56
2022-12-09T22:16:50.719Z,97814.34
2022-12-09T22:19:38.236Z,97812.38
2022-12-09T22:22:25.902Z,97816.94
2022-12-09T22:25:13.076Z,97818.63
2022-12-09T22:28:00.184Z,97818.75
2022-12-09T22:30:47.398Z,97805.94
2022-12-09T22:33:34.446Z,97813.72
2022-12-09T22:36:22.519Z,97815.38
2022-12-09T22:39:14.995Z,97812.66
2022-12-09T22:42:02.072Z,97813.38
2022-12-09T22:44:49.048Z,97818.69
2022-12-09T22:47:36.092Z,97812.66
2022-12-09T22:50:23.191Z,97816.13
2022-12-09T22:53:10.212Z,97815.53
2022-12-09T22:55:57.467Z,97810.38
2022-12-09T22:58:44.865Z,97810.69
2022-12-09T23:01:35.656Z,97820.81
2022-12-09T23:04:22.845Z,97816.50
2022-12-09T23:07:09.859Z,97818.44
2022-12-09T23:09:56.916Z,97826.84
2022-12-09T23:12:43.914Z,97818.19
2022-12-09T23:15:32.044Z,97836.56
2022-12-09T23:18:19.115Z,97834.78
2022-12-09T23:21:09.166Z,97839.31
2022-12-09T23:24:02.856Z,97843.66
2022-12-09T23:26:49.939Z,97847.72
2022-12-09T23:29:37.086Z,97855.44
2022-12-09T23:32:24.154Z,97845.59
2022-12-09T23:35:11.540Z,97838.59
2022-12-09T23:37:58.598Z,97855.69
2022-12-09T23:40:53.174Z,97841.41
2022-12-09T23:43:40.778Z,97844.09
2022-12-09T23:46:29.635Z,97849.31
2022-12-09T23:49:17.150Z,97841.25
2022-12-09T23:52:04.331Z,97825.50
2022-12-09T23:54:51.380Z,97835.72
2022-12-09T23:57:38.512Z,97856.63
